createdAt,value
2023-04-02T00:01:01.982Z,73.98
2023-04-02T00:03:42.295Z,73.68
2023-04-02T00:06:32.884Z,73.80
2023-04-02T00:09:24.009Z,72.86
2023-04-02T00:11:55.670Z,72.66
2023-04-02T00:14:36.243Z,73.51
2023-04-02T00:17:05.608Z,74.44
2023-04-02T00:19:37.216Z,73.18
2023-04-02T00:22:07.828Z,73.95
2023-04-02T00:24:34.637Z,74.20
2023-04-02T00:27:01.371Z,73.93
2023-04-02T00:29:28.089Z,73.72
2023-04-02T00:31:55.221Z,74.18
2023-04-02T00:34:32.079Z,73.52
2023-04-02T00:36:59.292Z,73.74
2023-04-02T00:39:28.794Z,73.62
2023-04-02T00:42:06.574Z,74.02
2023-04-02T00:44:38.701Z,75.41
2023-04-02T00:47:18.988Z,74.86
2023-04-02T00:49:46.435Z,74.55
2023-04-02T00:52:18.838Z,75.05
2023-04-02T00:54:49.862Z,74.40
2023-04-02T00:57:23.288Z,74.66
2023-04-02T01:00:00.848Z,75.12
2023-04-02T01:02:31.680Z,73.65
2023-04-02T01:05:05.604Z,73.46
2023-04-02T01:08:01.001Z,74.32
2023-04-02T01:10:50.651Z,73.86
2023-04-02T01:13:37.089Z,72.85
2023-04-02T01:16:11.977Z,73.40
2023-04-02T01:19:03.963Z,73.54
2023-04-02T01:21:37.166Z,73.82
2023-04-02T01:24:06.413Z,73.35
2023-04-02T01:26:52.725Z,73.65
2023-04-02T01:29:33.924Z,73.45
2023-04-02T01:32:04.645Z,72.81
2023-04-02T01:34:32.204Z,72.78
2023-04-02T01:37:05.171Z,73.13
2023-04-02T01:40:00.702Z,73.52
2023-04-02T01:42:36.613Z,73.68
2023-04-02T01:45:11.058Z,73.42
2023-04-02T01:47:38.698Z,74.31
2023-04-02T01:50:19.409Z,74.37
2023-04-02T01:52:51.156Z,74.81
2023-04-02T01:55:22.174Z,74.22
2023-04-02T01:57:51.276Z,74.00
2023-04-02T02:00:19.078Z,74.10
2023-04-02T02:02:49.960Z,74.27
2023-04-02T02:05:19.402Z,73.77
2023-04-02T02:07:46.545Z,74.04
2023-04-02T02:10:16.051Z,73.30
2023-04-02T02:12:48.005Z,73.57
2023-04-02T02:15:20.713Z,73.54
2023-04-02T02:17:47.794Z,73.99
2023-04-02T02:20:15.072Z,73.24
2023-04-02T02:22:49.859Z,73.00
2023-04-02T02:25:21.173Z,73.11
2023-04-02T02:27:56.908Z,73.34
2023-04-02T02:30:33.534Z,73.63
2023-04-02T02:33:03.339Z,72.70
2023-04-02T02:35:41.483Z,73.16
2023-04-02T02:38:14.160Z,73.12
2023-04-02T02:40:43.936Z,73.52
2023-04-02T02:43:13.169Z,73.94
2023-04-02T02:45:42.022Z,73.61
2023-04-02T02:48:14.224Z,73.62
2023-04-02T02:50:41.750Z,73.60
2023-04-02T02:53:21.783Z,73.80
2023-04-02T02:55:52.756Z,74.29
2023-04-02T02:58:23.714Z,74.41
2023-04-02T03:00:50.635Z,74.66
2023-04-02T03:03:27.474Z,74.65
2023-04-02T03:05:57.704Z,74.72
2023-04-02T03:08:30.676Z,75.08
2023-04-02T03:11:17.702Z,74.85
2023-04-02T03:13:47.340Z,75.48
2023-04-02T03:16:33.462Z,75.28
2023-04-02T03:19:15.387Z,75.36
2023-04-02T03:21:48.797Z,76.71
2023-04-02T03:24:49.708Z,75.90
2023-04-02T03:27:22.346Z,76.73
2023-04-02T03:30:28.081Z,76.21
2023-04-02T03:33:02.649Z,76.09
2023-04-02T03:35:36.342Z,76.76
2023-04-02T03:38:23.232Z,77.33
2023-04-02T03:40:59.716Z,76.90
2023-04-02T03:43:30.248Z,77.13
2023-04-02T03:46:39.639Z,76.75
2023-04-02T03:49:29.619Z,76.92
2023-04-02T03:52:04.609Z,76.56
2023-04-02T03:54:31.467Z,76.60
2023-04-02T03:56:58.775Z,76.67
2023-04-02T03:59:31.974Z,77.04
2023-04-02T04:02:06.423Z,76.96
2023-04-02T04:04:34.357Z,76.97
2023-04-02T04:07:01.890Z,76.79
2023-04-02T04:09:38.686Z,76.27
2023-04-02T04:12:31.580Z,76.48
2023-04-02T04:15:13.452Z,76.77
2023-04-02T04:17:51.329Z,76.23
2023-04-02T04:20:24.842Z,76.85
2023-04-02T04:22:56.021Z,76.75
2023-04-02T04:25:34.066Z,76.93
2023-04-02T04:28:10.589Z,76.78
2023-04-02T04:30:50.868Z,76.56
2023-04-02T04:33:26.596Z,76.82
2023-04-02T04:35:56.287Z,76.80
2023-04-02T04:38:44.200Z,76.88
2023-04-02T04:41:17.666Z,76.23
2023-04-02T04:44:17.274Z,76.25
2023-04-02T04:47:03.840Z,76.06
2023-04-02T04:49:36.407Z,76.16
2023-04-02T04:52:06.230Z,76.04
2023-04-02T04:54:37.728Z,76.15
2023-04-02T04:57:06.026Z,76.27
2023-04-02T04:59:42.540Z,76.40
2023-04-02T05:02:21.037Z,75.69
2023-04-02T05:04:52.264Z,75.41
2023-04-02T05:07:28.910Z,74.98
2023-04-02T05:09:58.803Z,74.12
2023-04-02T05:12:45.579Z,74.80
2023-04-02T05:15:36.754Z,74.28
2023-04-02T05:18:25.471Z,75.67
2023-04-02T05:21:00.300Z,73.63
2023-04-02T05:23:35.174Z,74.05
2023-04-02T05:26:22.035Z,73.99
2023-04-02T05:28:48.670Z,72.14
2023-04-02T05:31:20.501Z,72.77
2023-04-02T05:33:48.634Z,72.12
2023-04-02T05:36:21.705Z,71.30
2023-04-02T05:38:49.325Z,69.62
2023-04-02T05:41:32.482Z,69.99
2023-04-02T05:44:10.809Z,68.85
2023-04-02T05:46:50.674Z,68.26
2023-04-02T05:49:23.537Z,67.32
2023-04-02T05:51:52.807Z,66.92
2023-04-02T05:54:23.395Z,66.70
2023-04-02T05:56:54.626Z,65.45
2023-04-02T05:59:30.985Z,65.28
2023-04-02T06:02:03.839Z,64.65
2023-04-02T06:04:43.759Z,64.33
2023-04-02T06:07:15.849Z,64.27
2023-04-02T06:09:55.365Z,63.03
2023-04-02T06:12:44.407Z,62.81
2023-04-02T06:15:15.810Z,62.37
2023-04-02T06:17:48.017Z,61.50
2023-04-02T06:20:17.270Z,61.69
2023-04-02T06:22:44.974Z,60.45
2023-04-02T06:25:18.179Z,59.47
2023-04-02T06:27:45.539Z,59.51
2023-04-02T06:30:33.529Z,60.11
2023-04-02T06:33:00.381Z,58.77
2023-04-02T06:35:27.795Z,59.20
2023-04-02T06:37:57.419Z,59.48
2023-04-02T06:40:50.797Z,58.95
2023-04-02T06:43:26.345Z,58.36
2023-04-02T06:45:55.564Z,57.91
2023-04-02T06:48:23.297Z,57.73
2023-04-02T06:51:07.246Z,57.25
2023-04-02T06:53:39.952Z,57.84
2023-04-02T06:56:31.753Z,57.13
2023-04-02T06:58:59.120Z,56.57
2023-04-02T07:01:29.146Z,56.53
2023-04-02T07:03:56.642Z,55.88
2023-04-02T07:06:23.454Z,55.87
2023-04-02T07:08:50.254Z,55.68
2023-04-02T07:11:21.010Z,56.02
2023-04-02T07:13:49.317Z,55.49
2023-04-02T07:16:18.485Z,55.62
2023-04-02T07:18:45.808Z,56.50
2023-04-02T07:21:12.602Z,56.69
2023-04-02T07:23:39.691Z,55.40
2023-04-02T07:26:07.859Z,55.71
2023-04-02T07:28:34.814Z,55.62
2023-04-02T07:31:01.848Z,55.17
2023-04-02T07:33:29.977Z,55.85
2023-04-02T07:35:58.080Z,54.92
2023-04-02T07:38:25.124Z,54.42
2023-04-02T07:40:51.897Z,55.41
2023-04-02T07:43:18.607Z,55.06
2023-04-02T07:45:45.376Z,55.35
2023-04-02T07:48:13.687Z,55.32
2023-04-02T07:50:40.758Z,55.20
2023-04-02T07:53:08.822Z,55.53
2023-04-02T07:55:35.806Z,54.58
2023-04-02T07:58:03.113Z,54.38
2023-04-02T08:00:30.047Z,54.08
2023-04-02T08:02:56.937Z,52.94
2023-04-02T08:05:23.885Z,53.47
2023-04-02T08:07:55.554Z,52.18
2023-04-02T08:10:22.941Z,52.65
2023-04-02T08:12:50.173Z,52.78
2023-04-02T08:15:17.429Z,52.72
2023-04-02T08:17:46.382Z,52.36
2023-04-02T08:20:18.191Z,51.76
2023-04-02T08:22:48.150Z,52.00
2023-04-02T08:25:15.470Z,51.18
2023-04-02T08:27:42.293Z,49.96
2023-04-02T08:30:11.709Z,50.58
2023-04-02T08:32:41.040Z,50.09
2023-04-02T08:35:10.037Z,49.35
2023-04-02T08:37:37.208Z,48.50
2023-04-02T08:40:05.229Z,48.70
2023-04-02T08:43:15.353Z,47.71
2023-04-02T08:45:55.155Z,48.27
2023-04-02T08:48:23.420Z,47.67
2023-04-02T08:50:50.771Z,48.20
2023-04-02T08:53:27.692Z,48.58
2023-04-02T08:56:05.378Z,48.51
2023-04-02T08:59:01.156Z,49.61
2023-04-02T09:01:34.980Z,49.55
2023-04-02T09:04:06.706Z,50.05
2023-04-02T09:06:34.671Z,50.89
2023-04-02T09:09:01.478Z,50.68
2023-04-02T09:11:36.483Z,50.39
2023-04-02T09:14:08.261Z,49.87
2023-04-02T09:16:41.833Z,50.52
2023-04-02T09:19:21.854Z,50.44
2023-04-02T09:22:21.264Z,50.98
2023-04-02T09:24:52.485Z,49.82
2023-04-02T09:27:21.658Z,49.75
2023-04-02T09:29:51.091Z,49.69
2023-04-02T09:32:48.428Z,49.05
2023-04-02T09:35:25.353Z,48.78
2023-04-02T09:38:28.106Z,46.46
2023-04-02T09:40:54.811Z,46.95
2023-04-02T09:43:26.386Z,46.32
2023-04-02T09:46:12.350Z,46.50
2023-04-02T09:49:01.121Z,45.66
2023-04-02T09:51:38.275Z,45.21
2023-04-02T09:54:04.888Z,44.98
2023-04-02T09:56:33.443Z,44.44
2023-04-02T09:59:22.955Z,43.07
2023-04-02T10:01:55.817Z,42.40
2023-04-02T10:04:44.013Z,41.85
2023-04-02T10:07:36.920Z,41.05
2023-04-02T10:10:25.244Z,40.52
2023-04-02T10:13:18.940Z,41.97
2023-04-02T10:15:48.330Z,41.38
2023-04-02T10:18:22.703Z,41.09
2023-04-02T10:20:51.856Z,41.47
2023-04-02T10:23:19.756Z,40.19
2023-04-02T10:25:53.984Z,40.76
2023-04-02T10:28:42.720Z,40.39
2023-04-02T10:31:17.402Z,40.37
2023-04-02T10:33:48.594Z,39.48
2023-04-02T10:36:22.614Z,40.01
2023-04-02T10:38:52.605Z,38.68
2023-04-02T10:41:25.477Z,37.40
2023-04-02T10:44:20.870Z,37.39
2023-04-02T10:46:59.953Z,37.95
2023-04-02T10:49:36.505Z,38.16
2023-04-02T10:52:27.082Z,35.76
2023-04-02T10:54:55.410Z,34.86
2023-04-02T10:57:34.363Z,36.19
2023-04-02T11:00:15.943Z,35.44
2023-04-02T11:03:01.735Z,35.68
2023-04-02T11:05:44.429Z,34.90
2023-04-02T11:08:23.645Z,33.69
2023-04-02T11:11:19.421Z,32.08
2023-04-02T11:13:46.273Z,29.56
2023-04-02T11:16:16.552Z,30.54
2023-04-02T11:18:44.921Z,31.24
2023-04-02T11:21:30.380Z,31.69
2023-04-02T11:23:59.036Z,30.13
2023-04-02T11:26:41.731Z,27.35
2023-04-02T11:29:29.629Z,23.90
2023-04-02T11:32:25.299Z,24.38
2023-04-02T11:35:05.882Z,24.63
2023-04-02T11:37:41.039Z,24.71
2023-04-02T11:40:10.759Z,23.17
2023-04-02T11:42:38.341Z,21.57
2023-04-02T11:45:21.092Z,21.46
2023-04-02T11:48:00.210Z,21.24
2023-04-02T11:50:34.166Z,21.25
2023-04-02T11:53:06.842Z,20.50
2023-04-02T11:55:35.042Z,20.04
2023-04-02T11:58:25.929Z,18.90
2023-04-02T12:01:30.094Z,19.08
2023-04-02T12:04:09.054Z,19.15
2023-04-02T12:07:11.228Z,20.11
2023-04-02T12:09:49.668Z,21.66
2023-04-02T12:12:31.654Z,21.74
2023-04-02T12:14:59.629Z,22.40
2023-04-02T12:17:35.475Z,23.10
2023-04-02T12:20:09.638Z,24.64
2023-04-02T12:22:40.835Z,24.60
2023-04-02T12:25:24.672Z,21.26
2023-04-02T12:28:17.900Z,20.02
2023-04-02T12:30:45.985Z,18.24
2023-04-02T12:33:30.690Z,17.76
2023-04-02T12:36:02.474Z,16.54
2023-04-02T12:38:33.431Z,16.89
2023-04-02T12:41:03.516Z,16.18
2023-04-02T12:43:35.334Z,16.45
2023-04-02T12:46:07.042Z,16.10
2023-04-02T12:48:34.955Z,15.48
2023-04-02T12:51:02.568Z,14.48
2023-04-02T12:53:34.608Z,15.27
2023-04-02T12:56:01.515Z,15.49
2023-04-02T12:58:29.964Z,15.89
2023-04-02T13:01:09.780Z,15.83
2023-04-02T13:03:36.596Z,14.54
2023-04-02T13:06:03.746Z,13.96
2023-04-02T13:08:33.219Z,14.22
2023-04-02T13:11:02.056Z,13.88
2023-04-02T13:13:39.849Z,12.43
2023-04-02T13:16:12.738Z,13.02
2023-04-02T13:18:40.171Z,13.66
2023-04-02T13:21:19.543Z,13.29
2023-04-02T13:23:46.659Z,12.69
2023-04-02T13:26:17.485Z,13.62
2023-04-02T13:28:56.574Z,12.57
2023-04-02T13:31:23.427Z,12.31
2023-04-02T13:33:50.183Z,12.59
2023-04-02T13:36:16.910Z,12.49
2023-04-02T13:38:43.729Z,12.58
2023-04-02T13:41:19.327Z,12.49
2023-04-02T13:43:46.015Z,11.66
2023-04-02T13:46:19.591Z,12.40
2023-04-02T13:48:46.332Z,12.16
2023-04-02T13:51:18.464Z,11.63
2023-04-02T13:53:51.546Z,11.15
2023-04-02T13:56:19.467Z,11.49
2023-04-02T13:58:46.573Z,12.18
2023-04-02T14:01:14.395Z,11.68
2023-04-02T14:03:41.492Z,11.67
2023-04-02T14:06:13.733Z,11.65
2023-04-02T14:08:58.868Z,11.31
2023-04-02T14:12:01.195Z,11.48
2023-04-02T14:15:01.222Z,12.19
2023-04-02T14:17:53.850Z,12.33
2023-04-02T14:20:26.001Z,15.95
2023-04-02T14:23:27.182Z,20.77
2023-04-02T14:26:13.384Z,23.44
2023-04-02T14:28:57.373Z,26.69
2023-04-02T14:31:37.307Z,28.80
2023-04-02T14:34:04.001Z,31.75
2023-04-02T14:36:58.639Z,31.41
2023-04-02T14:39:28.555Z,36.54
2023-04-02T14:41:59.222Z,39.97
2023-04-02T14:44:29.297Z,43.99
2023-04-02T14:47:02.145Z,46.02
2023-04-02T14:49:39.587Z,48.76
2023-04-02T14:52:14.493Z,51.46
2023-04-02T14:54:51.737Z,50.62
2023-04-02T14:57:37.814Z,51.60
2023-04-02T15:00:28.136Z,52.24
2023-04-02T15:03:22.025Z,54.21
2023-04-02T15:05:54.237Z,54.87
2023-04-02T15:08:27.285Z,55.86
2023-04-02T15:11:08.701Z,57.75
2023-04-02T15:13:48.423Z,59.83
2023-04-02T15:16:19.430Z,58.45
2023-04-02T15:18:49.176Z,61.69
2023-04-02T15:21:19.022Z,67.73
2023-04-02T15:23:54.997Z,66.10
2023-04-02T15:26:29.700Z,64.22
2023-04-02T15:29:15.769Z,65.84
2023-04-02T15:31:46.892Z,63.34
2023-04-02T15:34:27.562Z,66.16
2023-04-02T15:37:23.720Z,68.15
2023-04-02T15:40:07.027Z,69.56
2023-04-02T15:42:43.211Z,70.52
2023-04-02T15:45:17.464Z,68.45
2023-04-02T15:48:32.201Z,66.14
2023-04-02T15:51:09.375Z,66.17
2023-04-02T15:53:48.201Z,64.69
2023-04-02T15:56:24.550Z,66.38
2023-04-02T15:59:12.070Z,63.54
2023-04-02T16:02:07.289Z,65.88
2023-04-02T16:05:10.744Z,65.99
2023-04-02T16:07:37.452Z,66.25
2023-04-02T16:10:16.545Z,65.40
2023-04-02T16:12:44.795Z,64.92
2023-04-02T16:15:18.045Z,65.70
2023-04-02T16:17:56.620Z,66.81
2023-04-02T16:20:27.370Z,66.53
2023-04-02T16:23:01.145Z,66.28
2023-04-02T16:25:32.368Z,67.41
2023-04-02T16:28:03.909Z,66.92
2023-04-02T16:30:30.563Z,67.66
2023-04-02T16:33:23.222Z,67.07
2023-04-02T16:35:56.853Z,66.09
2023-04-02T16:38:58.897Z,66.10
2023-04-02T16:41:36.223Z,65.79
2023-04-02T16:44:02.908Z,63.58
2023-04-02T16:47:01.875Z,64.17
2023-04-02T16:49:46.298Z,60.83
2023-04-02T16:52:28.044Z,61.22
2023-04-02T16:55:12.601Z,60.65
2023-04-02T16:58:00.604Z,59.61
2023-04-02T17:00:56.207Z,61.19
2023-04-02T17:03:41.841Z,62.08
2023-04-02T17:06:19.665Z,61.52
2023-04-02T17:08:54.382Z,62.65
2023-04-02T17:11:25.027Z,63.12
2023-04-02T17:14:06.149Z,61.21
2023-04-02T17:16:44.676Z,60.61
2023-04-02T17:19:13.809Z,61.46
2023-04-02T17:21:43.428Z,59.65
2023-04-02T17:24:19.394Z,61.82
2023-04-02T17:26:48.836Z,62.77
2023-04-02T17:29:20.441Z,62.84
2023-04-02T17:31:47.619Z,62.92
2023-04-02T17:34:16.871Z,61.33
2023-04-02T17:37:21.069Z,60.19
2023-04-02T17:40:08.383Z,61.58
2023-04-02T17:42:52.695Z,60.20
2023-04-02T17:46:11.124Z,61.28
2023-04-02T17:48:47.551Z,61.91
2023-04-02T17:51:36.881Z,61.72
2023-04-02T17:54:22.081Z,61.15
2023-04-02T17:57:19.269Z,62.37
2023-04-02T18:00:14.690Z,63.57
2023-04-02T18:03:12.366Z,62.19
2023-04-02T18:05:45.453Z,62.39
2023-04-02T18:08:33.424Z,61.91
2023-04-02T18:11:21.728Z,62.04
2023-04-02T18:13:50.872Z,63.17
2023-04-02T18:16:38.212Z,61.92
2023-04-02T18:19:16.276Z,62.01
2023-04-02T18:21:51.468Z,64.57
2023-04-02T18:24:33.583Z,63.13
2023-04-02T18:27:13.556Z,62.77
2023-04-02T18:30:05.166Z,61.63
2023-04-02T18:32:48.841Z,60.94
2023-04-02T18:35:27.553Z,61.51
2023-04-02T18:38:11.894Z,61.52
2023-04-02T18:40:41.927Z,61.01
2023-04-02T18:43:12.576Z,60.68
2023-04-02T18:46:00.811Z,60.89
2023-04-02T18:48:56.781Z,60.84
2023-04-02T18:51:30.133Z,60.64
2023-04-02T18:54:14.610Z,60.54
2023-04-02T18:56:41.598Z,59.99
2023-04-02T18:59:29.102Z,60.02
2023-04-02T19:01:58.089Z,60.40
2023-04-02T19:04:31.013Z,60.50
2023-04-02T19:07:03.757Z,60.69
2023-04-02T19:09:33.171Z,60.97
2023-04-02T19:12:00.395Z,60.75
2023-04-02T19:14:27.199Z,61.06
2023-04-02T19:16:59.883Z,60.63
2023-04-02T19:19:38.116Z,60.96
2023-04-02T19:22:23.558Z,61.12
2023-04-02T19:25:17.903Z,61.27
2023-04-02T19:28:03.434Z,62.07
2023-04-02T19:30:50.063Z,60.71
2023-04-02T19:33:25.965Z,61.28
2023-04-02T19:35:58.752Z,61.12
2023-04-02T19:38:59.793Z,60.83
2023-04-02T19:41:34.833Z,61.57
2023-04-02T19:44:01.889Z,60.97
2023-04-02T19:46:28.779Z,61.36
2023-04-02T19:49:22.936Z,61.15
2023-04-02T19:51:50.178Z,61.64
2023-04-02T19:54:16.858Z,60.60
2023-04-02T19:56:43.948Z,60.90
2023-04-02T19:59:18.019Z,61.01
2023-04-02T20:01:46.464Z,61.98
2023-04-02T20:04:13.707Z,61.28
2023-04-02T20:06:40.750Z,61.40
2023-04-02T20:09:08.640Z,61.10
2023-04-02T20:11:36.977Z,61.17
2023-04-02T20:14:04.368Z,61.99
2023-04-02T20:16:31.395Z,60.89
2023-04-02T20:18:58.209Z,60.50
2023-04-02T20:21:25.051Z,61.22
2023-04-02T20:23:55.445Z,60.50
2023-04-02T20:26:22.798Z,60.78
2023-04-02T20:28:49.631Z,60.42
2023-04-02T20:31:18.212Z,60.15
2023-04-02T20:33:45.574Z,59.63
2023-04-02T20:36:14.714Z,59.45
2023-04-02T20:38:41.828Z,59.63
2023-04-02T20:41:09.219Z,59.67
2023-04-02T20:43:36.384Z,59.27
2023-04-02T20:46:05.662Z,59.17
2023-04-02T20:48:35.609Z,59.12
2023-04-02T20:51:04.964Z,59.40
2023-04-02T20:53:47.745Z,58.93
2023-04-02T20:56:16.162Z,59.37
2023-04-02T20:58:43.519Z,59.31
2023-04-02T21:01:16.176Z,59.69
2023-04-02T21:03:43.702Z,59.81
2023-04-02T21:06:18.332Z,58.49
2023-04-02T21:08:45.358Z,58.56
2023-04-02T21:11:12.380Z,59.42
2023-04-02T21:13:41.813Z,59.12
2023-04-02T21:16:20.206Z,59.21
2023-04-02T21:18:49.270Z,59.50
2023-04-02T21:21:16.780Z,59.02
2023-04-02T21:23:44.966Z,58.63
2023-04-02T21:26:14.709Z,59.48
2023-04-02T21:28:42.170Z,58.54
2023-04-02T21:31:14.492Z,59.44
2023-04-02T21:33:44.058Z,58.67
2023-04-02T21:36:12.968Z,59.14
2023-04-02T21:38:47.736Z,58.70
2023-04-02T21:41:18.424Z,58.72
2023-04-02T21:43:48.461Z,58.96
2023-04-02T21:46:26.235Z,59.35
2023-04-02T21:48:54.570Z,58.75
2023-04-02T21:51:23.588Z,58.20
2023-04-02T21:53:50.798Z,58.30
2023-04-02T21:56:23.302Z,58.37
2023-04-02T21:58:51.398Z,58.60
2023-04-02T22:01:26.508Z,58.21
2023-04-02T22:03:58.190Z,58.25
2023-04-02T22:06:26.290Z,58.35
2023-04-02T22:08:58.604Z,58.62
2023-04-02T22:11:28.644Z,58.38
2023-04-02T22:13:55.587Z,58.61
2023-04-02T22:16:25.246Z,58.26
2023-04-02T22:18:52.969Z,58.59
2023-04-02T22:21:19.955Z,58.53
2023-04-02T22:23:46.866Z,58.50
2023-04-02T22:26:15.820Z,58.26
2023-04-02T22:28:42.868Z,58.80
2023-04-02T22:31:16.083Z,58.89
2023-04-02T22:33:44.012Z,58.78
2023-04-02T22:36:11.955Z,59.49
2023-04-02T22:38:38.779Z,58.45
2023-04-02T22:41:15.717Z,58.72
2023-04-02T22:43:46.555Z,59.11
2023-04-02T22:46:15.843Z,59.44
2023-04-02T22:48:43.269Z,59.31
2023-04-02T22:51:11.886Z,59.50
2023-04-02T22:53:39.242Z,59.52
2023-04-02T22:56:14.613Z,59.85
2023-04-02T22:58:41.843Z,59.27
2023-04-02T23:01:12.196Z,59.30
2023-04-02T23:03:39.065Z,59.75
2023-04-02T23:06:08.537Z,59.98
2023-04-02T23:08:36.263Z,59.31
2023-04-02T23:11:05.804Z,59.55
2023-04-02T23:13:33.260Z,59.60
2023-04-02T23:16:05.567Z,59.51
2023-04-02T23:18:36.126Z,60.18
2023-04-02T23:21:03.528Z,59.57
2023-04-02T23:23:31.542Z,59.67
2023-04-02T23:26:09.094Z,59.74
2023-04-02T23:28:36.715Z,59.35
2023-04-02T23:31:05.365Z,60.09
2023-04-02T23:33:32.429Z,59.71
2023-04-02T23:35:59.291Z,60.04
2023-04-02T23:38:26.613Z,59.91
2023-04-02T23:40:53.704Z,59.73
2023-04-02T23:43:20.402Z,60.03
2023-04-02T23:45:48.901Z,59.78
2023-04-02T23:48:16.014Z,60.11
2023-04-02T23:50:44.873Z,60.44
2023-04-02T23:53:12.083Z,60.05
2023-04-02T23:55:39.368Z,59.57
2023-04-02T23:58:06.271Z,59.42
